WETO2: N Canadian River, Wetumka, OK

Data processed at Fri Feb 16 2018 23:19


All information presented herein is the property of the government of the United States of America and may be revised or deleted at any time without prior notice.
Dissemination of this information without the expressed written consent of the Public Affairs Office, Tulsa District U.S. Army Corps of Engineers is strictly prohibited.
These data are gathered electronically and, as presented, have not undergone any form of quality control. These data are not guaranteed to be valid or correct.
Go to home page.
Go to station list.

Upstream stations:

Downstream station:
Previous Day
Next Day
Current Day
    
SHEF ID:       WETO2     North Canadian River near Wetumk
STATION TYPE:  

               PRECIP     STAGE  RIV-FLOW  BAT-LOAD
                   in        ft       cfs      volt
              Ccp-Rev   Ccp-Rev   Ccp-Rev   Ccp-Rev
(US/Central)
02/14 00:00      0.00      5.37       149     12.81
02/14 01:00      0.00      5.38       152     12.73
02/14 02:00      0.00      5.38       152     12.73
02/14 03:00      0.00      5.38       152     12.73
02/14 04:00      0.00      5.38       152     12.73
02/14 05:00      0.00      5.39       155     12.73
02/14 06:00      0.00      5.39       155     12.73
02/14 07:00      0.00      5.39       155     12.65
02/14 08:00      0.00      5.40       157     12.65
02/14 09:00      0.00      5.42       162     12.73
02/14 10:00      0.00      5.41       160     12.89
02/14 11:00      0.00      5.41       160     13.29
02/14 12:00      0.00      5.40       157     13.53
02/14 13:00      0.00      5.40       157     13.60
02/14 14:00      0.00      5.39       155     13.44
02/14 15:00      0.00      5.37       149     13.44
02/14 16:00      0.00      5.38       152     13.29
02/14 17:00      0.00      5.37       149     13.29
02/14 18:00      0.00      5.37       149     13.21
02/14 19:00      0.00      5.37       149     13.05
02/14 20:00      0.00      5.37       149     12.97
02/14 21:00      0.00      5.37       149     12.97
02/14 22:00      0.00      5.37       149     12.89
02/14 23:00      0.00      5.38       152     12.89